Main page
METAR-TAF:

METAR-TAF

Airports :

Lauro Kurtz Airport

Passo Fundo, Rio Grande do Sul, Brazil

latitude: 28-15S, longitude: 052-24W, elevation: 684 m

Current weather observation

The report was made 14 hours and 21 minutes ago, at 20:00 UTC
Wind 8 kt from the Northwest
Temperature 23°C
Humidity 73%
Pressure 1012 hPa
Visibility 10 km or more
Broken clouds at a height of 1000 ft
Few clouds at a height of 4000 ft, Towering cumulus.
Broken clouds at a height of 4500 ft
light rain

METAR: SBPF 132000Z 31008KT 9999 -RA BKN010 FEW040TCU BKN045 23/18 Q1012

Time: 08:21 (10:21 UTC)


TAF: missing

Weather observations and forecasts of more than 4000 airports (METAR and TAF reports).

The available stations are represented by yellow and red dots on the map.

Hover mouse over dot to see the name of the station.

Then click to see weather observations and forecasts.

To change the map : click on the green buttons with a black cross to zoom in, on the green button with a dash to zoom out, or on the green arrows for adjacent maps.


METAR-TAF: